createdAt,value
2023-02-08T00:01:11.677Z,11.88
2023-02-08T00:03:40.709Z,12.13
2023-02-08T00:06:10.367Z,12.45
2023-02-08T00:08:38.294Z,12.65
2023-02-08T00:11:06.833Z,12.40
2023-02-08T00:13:35.088Z,12.70
2023-02-08T00:16:02.924Z,12.90
2023-02-08T00:18:30.807Z,12.60
2023-02-08T00:20:58.450Z,12.35
2023-02-08T00:23:27.740Z,11.40
2023-02-08T00:25:55.332Z,11.95
2023-02-08T00:28:22.941Z,12.63
2023-02-08T00:30:50.527Z,12.35
2023-02-08T00:33:18.085Z,11.63
2023-02-08T00:35:46.272Z,13.13
2023-02-08T00:38:13.915Z,12.00
2023-02-08T00:40:42.845Z,12.02
2023-02-08T00:43:10.538Z,11.18
2023-02-08T00:45:38.142Z,12.55
2023-02-08T00:48:05.728Z,11.98
2023-02-08T00:50:33.294Z,11.98
2023-02-08T00:53:01.099Z,11.32
2023-02-08T00:55:28.685Z,12.73
2023-02-08T00:57:57.592Z,11.20
2023-02-08T01:00:25.290Z,11.38
2023-02-08T01:02:52.931Z,12.43
2023-02-08T01:05:20.652Z,12.55
2023-02-08T01:07:48.252Z,11.45
2023-02-08T01:10:15.870Z,11.90
2023-02-08T01:12:43.401Z,12.57
2023-02-08T01:15:12.350Z,11.98
2023-02-08T01:17:39.946Z,12.75
2023-02-08T01:20:08.498Z,14.10
2023-02-08T01:22:37.313Z,12.85
2023-02-08T01:25:05.218Z,12.75
2023-02-08T01:27:32.837Z,12.93
2023-02-08T01:30:00.364Z,12.73
2023-02-08T01:32:30.579Z,12.90
2023-02-08T01:34:58.346Z,13.75
2023-02-08T01:37:26.106Z,13.85
2023-02-08T01:39:53.682Z,12.27
2023-02-08T01:42:22.241Z,13.00
2023-02-08T01:45:23.338Z,14.25
2023-02-08T01:47:57.620Z,14.05
2023-02-08T01:50:30.736Z,13.82
2023-02-08T01:52:59.018Z,14.15
2023-02-08T01:55:29.063Z,14.05
2023-02-08T01:58:00.035Z,14.07
2023-02-08T02:00:28.326Z,12.70
2023-02-08T02:02:59.099Z,13.02
2023-02-08T02:05:30.534Z,12.75
2023-02-08T02:08:00.727Z,16.00
2023-02-08T02:10:30.343Z,13.30
2023-02-08T02:13:03.743Z,13.90
2023-02-08T02:15:31.678Z,13.45
2023-02-08T02:18:01.660Z,13.70
2023-02-08T02:20:50.439Z,14.95
2023-02-08T02:23:50.072Z,14.23
2023-02-08T02:26:40.648Z,15.88
2023-02-08T02:30:05.630Z,15.00
2023-02-08T02:32:47.369Z,13.35
2023-02-08T02:35:20.028Z,13.90
2023-02-08T02:37:57.054Z,13.73
2023-02-08T02:40:35.386Z,14.93
2023-02-08T02:43:29.675Z,15.60
2023-02-08T02:46:03.877Z,15.38
2023-02-08T02:48:39.540Z,14.27
2023-02-08T02:51:12.240Z,14.82
2023-02-08T02:53:49.241Z,14.88
2023-02-08T02:56:21.755Z,15.32
2023-02-08T02:58:50.419Z,15.88
2023-02-08T03:01:26.198Z,15.88
2023-02-08T03:03:55.707Z,15.82
2023-02-08T03:06:34.784Z,15.02
2023-02-08T03:09:17.551Z,16.65
2023-02-08T03:11:52.203Z,17.50
2023-02-08T03:14:32.899Z,16.15
2023-02-08T03:17:15.536Z,15.25
2023-02-08T03:19:51.009Z,16.80
2023-02-08T03:22:23.604Z,16.75
2023-02-08T03:24:56.084Z,15.85
2023-02-08T03:27:29.587Z,16.38
2023-02-08T03:30:01.975Z,17.13
2023-02-08T03:32:39.186Z,16.77
2023-02-08T03:35:12.129Z,16.23
2023-02-08T03:37:44.358Z,16.58
2023-02-08T03:40:17.583Z,16.17
2023-02-08T03:42:48.098Z,16.27
2023-02-08T03:45:20.882Z,16.85
2023-02-08T03:47:51.165Z,16.90
2023-02-08T03:50:22.868Z,16.77
2023-02-08T03:52:52.127Z,16.50
2023-02-08T03:55:24.204Z,19.25
2023-02-08T03:57:57.287Z,17.65
2023-02-08T04:00:25.685Z,17.00
2023-02-08T04:02:58.246Z,17.90
2023-02-08T04:05:27.487Z,17.27
2023-02-08T04:07:55.278Z,18.02
2023-02-08T04:10:22.992Z,17.20
2023-02-08T04:12:51.131Z,16.90
2023-02-08T04:15:19.278Z,19.10
2023-02-08T04:17:46.893Z,19.15
2023-02-08T04:20:14.691Z,18.25
2023-02-08T04:22:43.674Z,17.02
2023-02-08T04:25:11.215Z,18.17
2023-02-08T04:27:38.796Z,17.45
2023-02-08T04:30:06.983Z,17.95
2023-02-08T04:32:34.715Z,17.85
2023-02-08T04:35:02.315Z,18.50
2023-02-08T04:37:30.902Z,19.05
2023-02-08T04:40:00.877Z,19.10
2023-02-08T04:42:28.845Z,17.65
2023-02-08T04:44:56.434Z,18.10
2023-02-08T04:47:23.998Z,18.50
2023-02-08T04:49:51.534Z,17.15
2023-02-08T04:52:19.088Z,18.13
2023-02-08T04:54:46.734Z,18.13
2023-02-08T04:57:16.106Z,18.75
2023-02-08T04:59:43.719Z,18.38
2023-02-08T05:02:11.302Z,17.80
2023-02-08T05:04:38.910Z,17.60
2023-02-08T05:07:06.876Z,18.10
2023-02-08T05:09:34.732Z,17.50
2023-02-08T05:12:02.301Z,18.20
2023-02-08T05:14:31.322Z,19.05
2023-02-08T05:16:58.926Z,17.67
2023-02-08T05:19:27.575Z,17.60
2023-02-08T05:21:55.166Z,18.77
2023-02-08T05:24:22.893Z,18.27
2023-02-08T05:26:50.432Z,17.80
2023-02-08T05:29:18.060Z,18.05
2023-02-08T05:31:47.034Z,17.73
2023-02-08T05:34:14.668Z,18.15
2023-02-08T05:36:42.272Z,17.33
2023-02-08T05:39:10.109Z,18.92
2023-02-08T05:41:37.737Z,18.00
2023-02-08T05:44:05.378Z,17.27
2023-02-08T05:46:33.053Z,18.48
2023-02-08T05:49:02.020Z,17.55
2023-02-08T05:51:29.688Z,18.30
2023-02-08T05:53:57.558Z,17.77
2023-02-08T05:56:25.233Z,17.83
2023-02-08T05:58:52.819Z,17.13
2023-02-08T06:01:20.527Z,17.98
2023-02-08T06:03:48.715Z,17.95
2023-02-08T06:06:17.677Z,18.77
2023-02-08T06:08:45.286Z,18.38
2023-02-08T06:11:13.065Z,17.27
2023-02-08T06:13:40.638Z,18.30
2023-02-08T06:16:08.784Z,17.42
2023-02-08T06:18:36.436Z,19.40
2023-02-08T06:21:04.159Z,17.58
2023-02-08T06:23:33.641Z,17.90
2023-02-08T06:26:01.335Z,17.92
2023-02-08T06:28:29.021Z,18.33
2023-02-08T06:30:56.661Z,18.83
2023-02-08T06:33:25.253Z,17.65
2023-02-08T06:35:53.741Z,18.75
2023-02-08T06:38:21.397Z,19.20
2023-02-08T06:40:51.220Z,18.20
2023-02-08T06:43:19.051Z,18.48
2023-02-08T06:45:47.222Z,19.33
2023-02-08T06:48:15.067Z,19.05
2023-02-08T06:50:43.149Z,17.98
2023-02-08T06:53:11.013Z,18.77
2023-02-08T06:55:38.751Z,18.50
2023-02-08T06:58:07.764Z,18.27
2023-02-08T07:00:35.680Z,19.95
2023-02-08T07:03:03.451Z,18.15
2023-02-08T07:05:31.059Z,18.17
2023-02-08T07:07:59.029Z,20.60
2023-02-08T07:10:26.700Z,18.33
2023-02-08T07:12:54.502Z,20.40
2023-02-08T07:15:23.477Z,19.38
2023-02-08T07:17:51.363Z,19.40
2023-02-08T07:20:19.173Z,21.02
2023-02-08T07:22:46.809Z,18.15
2023-02-08T07:25:14.410Z,19.02
2023-02-08T07:27:42.142Z,19.95
2023-02-08T07:30:11.022Z,19.30
2023-02-08T07:32:39.986Z,19.27
2023-02-08T07:35:08.376Z,20.75
2023-02-08T07:37:36.045Z,18.55
2023-02-08T07:40:03.732Z,19.23
2023-02-08T07:42:31.382Z,19.08
2023-02-08T07:45:16.542Z,18.77
2023-02-08T07:47:46.991Z,18.55
2023-02-08T07:50:16.222Z,19.92
2023-02-08T07:52:46.102Z,19.02
2023-02-08T07:55:16.870Z,20.20
2023-02-08T07:57:44.542Z,19.38
2023-02-08T08:00:13.528Z,19.08
2023-02-08T08:02:41.400Z,19.08
2023-02-08T08:05:11.316Z,18.92
2023-02-08T08:07:39.018Z,20.35
2023-02-08T08:10:07.402Z,19.15
2023-02-08T08:12:35.057Z,19.52
2023-02-08T08:15:02.970Z,19.52
2023-02-08T08:17:30.480Z,18.90
2023-02-08T08:19:58.113Z,18.80
2023-02-08T08:22:27.080Z,18.55
2023-02-08T08:24:54.852Z,19.33
2023-02-08T08:27:22.639Z,19.40
2023-02-08T08:29:50.501Z,18.63
2023-02-08T08:32:18.099Z,20.50
2023-02-08T08:34:47.966Z,19.00
2023-02-08T08:37:15.906Z,20.27
2023-02-08T08:39:44.933Z,20.60
2023-02-08T08:42:12.545Z,21.00
2023-02-08T08:44:40.421Z,19.50
2023-02-08T08:47:09.966Z,19.35
2023-02-08T08:49:37.658Z,18.75
2023-02-08T08:52:07.762Z,20.40
2023-02-08T08:54:36.204Z,20.20
2023-02-08T08:57:05.407Z,20.85
2023-02-08T08:59:33.678Z,20.40
2023-02-08T09:02:01.358Z,20.83
2023-02-08T09:04:29.096Z,21.88
2023-02-08T09:06:56.756Z,20.38
2023-02-08T09:09:24.440Z,21.33
2023-02-08T09:11:52.073Z,20.58
2023-02-08T09:14:21.198Z,19.20
2023-02-08T09:16:49.172Z,19.63
2023-02-08T09:19:16.953Z,21.40
2023-02-08T09:21:46.406Z,20.42
2023-02-08T09:24:14.099Z,21.55
2023-02-08T09:26:42.183Z,21.98
2023-02-08T09:29:10.059Z,20.85
2023-02-08T09:31:39.563Z,21.60
2023-02-08T09:34:08.013Z,21.25
2023-02-08T09:36:37.718Z,18.92
2023-02-08T09:39:09.171Z,20.40
2023-02-08T09:42:02.785Z,21.08
2023-02-08T09:44:37.328Z,21.33
2023-02-08T09:47:11.811Z,19.80
2023-02-08T09:49:45.152Z,20.75
2023-02-08T09:52:17.747Z,21.30
2023-02-08T09:54:50.030Z,21.90
2023-02-08T09:57:22.329Z,21.98
2023-02-08T09:59:55.371Z,20.33
2023-02-08T10:02:28.072Z,21.55
2023-02-08T10:04:59.684Z,21.10
2023-02-08T10:07:29.203Z,20.92
2023-02-08T10:09:59.668Z,22.42
2023-02-08T10:12:38.785Z,21.23
2023-02-08T10:15:15.012Z,22.25
2023-02-08T10:17:54.270Z,20.02
2023-02-08T10:20:33.717Z,20.85
2023-02-08T10:23:19.878Z,21.25
2023-02-08T10:26:03.672Z,19.98
2023-02-08T10:28:52.054Z,20.63
2023-02-08T10:31:26.243Z,20.92
2023-02-08T10:34:02.613Z,20.48
2023-02-08T10:36:34.175Z,20.50
2023-02-08T10:39:04.981Z,20.75
2023-02-08T10:41:35.427Z,19.73
2023-02-08T10:44:06.858Z,19.17
2023-02-08T10:46:41.675Z,19.80
2023-02-08T10:49:16.217Z,18.73
2023-02-08T10:51:44.114Z,18.02
2023-02-08T10:54:14.687Z,19.92
2023-02-08T10:56:47.243Z,18.25
2023-02-08T10:59:18.225Z,20.08
2023-02-08T11:01:47.160Z,20.92
2023-02-08T11:04:17.086Z,19.52
2023-02-08T11:06:46.397Z,19.27
2023-02-08T11:09:22.955Z,21.58
2023-02-08T11:11:52.670Z,18.98
2023-02-08T11:14:26.080Z,21.65
2023-02-08T11:16:56.300Z,20.65
2023-02-08T11:19:36.494Z,19.98
2023-02-08T11:22:06.194Z,19.70
2023-02-08T11:24:40.157Z,19.30
2023-02-08T11:27:18.771Z,21.00
2023-02-08T11:29:47.098Z,18.75
2023-02-08T11:32:18.556Z,18.45
2023-02-08T11:34:48.725Z,17.58
2023-02-08T11:37:20.841Z,19.08
2023-02-08T11:39:54.211Z,19.45
2023-02-08T11:42:25.885Z,18.77
2023-02-08T11:44:55.207Z,19.88
2023-02-08T11:47:26.784Z,18.00
2023-02-08T11:49:57.986Z,18.05
2023-02-08T11:52:28.210Z,19.00
2023-02-08T11:55:11.754Z,17.83
2023-02-08T11:57:53.009Z,17.58
2023-02-08T12:00:23.370Z,16.40
2023-02-08T12:02:51.500Z,17.27
2023-02-08T12:05:30.611Z,15.77
2023-02-08T12:08:08.425Z,16.65
2023-02-08T12:10:58.380Z,16.80
2023-02-08T12:13:50.445Z,15.93
2023-02-08T12:16:36.028Z,15.82
2023-02-08T12:19:28.109Z,16.02
2023-02-08T12:22:00.612Z,16.40
2023-02-08T12:24:39.442Z,14.85
2023-02-08T12:27:22.990Z,16.33
2023-02-08T12:29:59.115Z,16.42
2023-02-08T12:32:42.489Z,14.52
2023-02-08T12:35:45.727Z,14.75
2023-02-08T12:38:50.498Z,14.02
2023-02-08T12:41:23.740Z,14.43
2023-02-08T12:44:02.134Z,13.38
2023-02-08T12:46:52.513Z,14.25
2023-02-08T12:49:35.808Z,13.32
2023-02-08T12:52:15.463Z,13.88
2023-02-08T12:54:50.071Z,13.30
2023-02-08T12:57:20.973Z,12.88
2023-02-08T12:59:52.032Z,13.48
2023-02-08T13:02:24.173Z,12.63
2023-02-08T13:04:54.960Z,12.75
2023-02-08T13:07:26.734Z,13.68
2023-02-08T13:10:03.887Z,12.27
2023-02-08T13:12:34.925Z,13.40
2023-02-08T13:15:09.241Z,13.93
2023-02-08T13:17:46.340Z,13.63
2023-02-08T13:20:30.114Z,14.23
2023-02-08T13:23:02.974Z,12.63
2023-02-08T13:25:36.148Z,13.13
2023-02-08T13:28:05.005Z,12.52
2023-02-08T13:30:34.672Z,12.35
2023-02-08T13:33:06.845Z,12.45
2023-02-08T13:35:35.008Z,12.88
2023-02-08T13:38:04.937Z,12.23
2023-02-08T13:40:36.173Z,11.82
2023-02-08T13:43:06.693Z,11.80
2023-02-08T13:45:36.877Z,10.45
2023-02-08T13:48:07.106Z,11.38
2023-02-08T13:50:46.802Z,10.07
2023-02-08T13:53:15.889Z,10.68
2023-02-08T13:56:08.246Z,9.85
2023-02-08T13:58:39.403Z,9.50
2023-02-08T14:01:17.918Z,9.88
2023-02-08T14:03:45.771Z,9.77
2023-02-08T14:06:20.760Z,8.57
2023-02-08T14:08:56.197Z,8.55
2023-02-08T14:11:37.470Z,8.18
2023-02-08T14:14:13.935Z,7.07
2023-02-08T14:16:41.823Z,6.85
2023-02-08T14:19:25.994Z,6.95
2023-02-08T14:22:02.886Z,6.47
2023-02-08T14:24:34.458Z,5.80
2023-02-08T14:27:10.654Z,7.35
2023-02-08T14:29:38.755Z,6.85
2023-02-08T14:32:07.055Z,6.85
2023-02-08T14:34:37.296Z,6.10
2023-02-08T14:37:07.364Z,7.47
2023-02-08T14:39:37.267Z,6.38
2023-02-08T14:42:08.609Z,5.80
2023-02-08T14:45:05.680Z,6.30
2023-02-08T14:48:20.589Z,6.20
2023-02-08T14:50:55.918Z,7.40
2023-02-08T14:53:35.988Z,7.35
2023-02-08T14:56:13.982Z,8.43
2023-02-08T14:58:45.103Z,8.38
2023-02-08T15:01:19.254Z,8.85
2023-02-08T15:03:49.433Z,8.68
2023-02-08T15:06:50.391Z,9.57
2023-02-08T15:09:21.567Z,8.77
2023-02-08T15:11:52.449Z,7.72
2023-02-08T15:14:21.953Z,9.38
2023-02-08T15:16:53.478Z,9.52
2023-02-08T15:19:25.238Z,9.85
2023-02-08T15:21:52.932Z,10.05
2023-02-08T15:24:23.369Z,9.95
2023-02-08T15:26:52.902Z,10.57
2023-02-08T15:29:26.138Z,10.85
2023-02-08T15:31:59.176Z,10.95
2023-02-08T15:34:27.763Z,11.40
2023-02-08T15:36:57.335Z,11.35
2023-02-08T15:39:34.640Z,11.02
2023-02-08T15:42:02.918Z,10.93
2023-02-08T15:44:32.834Z,11.80
2023-02-08T15:47:03.774Z,11.20
2023-02-08T15:49:34.704Z,11.40
2023-02-08T15:52:02.822Z,10.73
2023-02-08T15:54:30.622Z,11.27
2023-02-08T15:57:01.290Z,11.00
2023-02-08T15:59:32.730Z,12.20
2023-02-08T16:02:24.064Z,11.27
2023-02-08T16:04:51.986Z,12.32
2023-02-08T16:07:28.261Z,12.07
2023-02-08T16:09:57.125Z,12.50
2023-02-08T16:12:27.342Z,12.30
2023-02-08T16:14:56.961Z,12.50
2023-02-08T16:17:36.428Z,11.30
2023-02-08T16:20:05.299Z,11.10
2023-02-08T16:22:33.803Z,11.07
2023-02-08T16:25:33.824Z,11.57
2023-02-08T16:28:01.543Z,10.85
2023-02-08T16:30:29.358Z,11.18
2023-02-08T16:32:58.528Z,11.02
2023-02-08T16:35:29.522Z,10.93
2023-02-08T16:38:00.374Z,10.75
2023-02-08T16:40:48.650Z,11.45
2023-02-08T16:43:18.281Z,11.55
2023-02-08T16:45:46.135Z,11.40
2023-02-08T16:48:35.005Z,11.38
2023-02-08T16:51:03.346Z,10.25
2023-02-08T16:53:41.422Z,10.65
2023-02-08T16:56:11.156Z,10.77
2023-02-08T16:58:39.385Z,11.32
2023-02-08T17:01:07.771Z,11.07
2023-02-08T17:03:38.248Z,11.48
2023-02-08T17:06:06.461Z,10.93
2023-02-08T17:08:35.787Z,11.95
2023-02-08T17:11:03.501Z,12.23
2023-02-08T17:13:31.182Z,12.43
2023-02-08T17:16:00.852Z,11.40
2023-02-08T17:18:28.399Z,12.63
2023-02-08T17:20:59.938Z,12.88
2023-02-08T17:23:27.759Z,12.73
2023-02-08T17:25:55.527Z,12.68
2023-02-08T17:28:23.480Z,13.38
2023-02-08T17:30:53.127Z,13.80
2023-02-08T17:33:21.063Z,11.52
2023-02-08T17:35:50.661Z,13.38
2023-02-08T17:38:19.740Z,13.38
2023-02-08T17:40:47.666Z,13.40
2023-02-08T17:43:15.690Z,14.05
2023-02-08T17:45:45.140Z,12.90
2023-02-08T17:48:14.192Z,12.98
2023-02-08T17:50:43.532Z,13.05
2023-02-08T17:53:11.371Z,13.43
2023-02-08T17:55:42.418Z,13.32
2023-02-08T17:58:10.134Z,13.25
2023-02-08T18:00:38.051Z,13.45
2023-02-08T18:03:05.922Z,12.75
2023-02-08T18:05:33.472Z,14.30
2023-02-08T18:08:01.058Z,15.35
2023-02-08T18:10:28.905Z,14.98
2023-02-08T18:12:57.829Z,15.32
2023-02-08T18:15:25.366Z,14.82
2023-02-08T18:17:53.092Z,13.90
2023-02-08T18:20:20.971Z,15.05
2023-02-08T18:22:48.519Z,16.13
2023-02-08T18:25:17.556Z,16.17
2023-02-08T18:27:45.090Z,15.20
2023-02-08T18:30:15.464Z,15.57
2023-02-08T18:32:43.149Z,16.30
2023-02-08T18:35:10.897Z,17.60
2023-02-08T18:37:39.033Z,15.48
2023-02-08T18:40:09.327Z,15.25
2023-02-08T18:42:36.990Z,14.80
2023-02-08T18:45:04.871Z,15.80
2023-02-08T18:47:35.437Z,15.93
2023-02-08T18:50:03.508Z,16.77
2023-02-08T18:52:31.699Z,15.48
2023-02-08T18:54:59.621Z,15.48
2023-02-08T18:57:27.303Z,16.80
2023-02-08T18:59:55.887Z,15.80
2023-02-08T19:02:26.188Z,15.90
2023-02-08T19:04:55.192Z,15.40
2023-02-08T19:07:22.947Z,16.17
2023-02-08T19:09:50.514Z,16.25
2023-02-08T19:12:18.925Z,15.85
2023-02-08T19:14:50.440Z,16.55
2023-02-08T19:17:18.259Z,17.88
2023-02-08T19:19:46.581Z,15.15
2023-02-08T19:22:15.716Z,16.55
2023-02-08T19:24:43.601Z,16.40
2023-02-08T19:27:11.428Z,17.88
2023-02-08T19:29:39.127Z,15.80
2023-02-08T19:32:07.970Z,16.17
2023-02-08T19:34:35.604Z,15.85
2023-02-08T19:37:03.341Z,15.90
2023-02-08T19:39:32.495Z,15.68
2023-02-08T19:42:00.308Z,16.45
2023-02-08T19:44:30.424Z,17.17
2023-02-08T19:46:58.482Z,16.55
2023-02-08T19:49:27.513Z,15.85
2023-02-08T19:51:55.480Z,17.05
2023-02-08T19:54:23.071Z,16.88
2023-02-08T19:56:54.693Z,17.17
2023-02-08T19:59:24.266Z,16.30
2023-02-08T20:01:51.827Z,16.02
2023-02-08T20:04:19.617Z,17.40
2023-02-08T20:06:47.537Z,16.60
2023-02-08T20:09:16.515Z,16.13
2023-02-08T20:11:56.881Z,16.98
2023-02-08T20:14:28.917Z,16.25
2023-02-08T20:16:56.889Z,17.42
2023-02-08T20:19:25.194Z,18.63
2023-02-08T20:21:52.926Z,17.80
2023-02-08T20:24:20.740Z,18.00
2023-02-08T20:26:49.440Z,17.67
2023-02-08T20:29:18.537Z,18.48
2023-02-08T20:31:51.788Z,19.75
2023-02-08T20:34:19.579Z,17.75
2023-02-08T20:37:05.365Z,18.17
2023-02-08T20:39:34.682Z,17.52
2023-02-08T20:42:02.268Z,18.63
2023-02-08T20:44:31.694Z,19.58
2023-02-08T20:47:00.731Z,19.73
2023-02-08T20:49:29.326Z,18.45
2023-02-08T20:51:57.041Z,18.48
2023-02-08T20:54:25.406Z,18.90
2023-02-08T20:56:54.961Z,18.75
2023-02-08T20:59:25.935Z,20.40
2023-02-08T21:01:53.673Z,19.63
2023-02-08T21:04:23.780Z,18.95
2023-02-08T21:06:52.485Z,19.42
2023-02-08T21:09:21.076Z,19.02
2023-02-08T21:11:49.054Z,18.33
2023-02-08T21:14:20.516Z,19.08
2023-02-08T21:16:49.518Z,19.92
2023-02-08T21:19:17.742Z,18.77
2023-02-08T21:21:47.293Z,19.85
2023-02-08T21:24:14.857Z,19.42
2023-02-08T21:26:42.421Z,19.73
2023-02-08T21:29:10.389Z,20.08
2023-02-08T21:31:38.204Z,20.42
2023-02-08T21:34:06.850Z,20.25
2023-02-08T21:36:35.156Z,19.23
2023-02-08T21:39:04.886Z,20.20
2023-02-08T21:41:34.241Z,20.92
2023-02-08T21:44:04.455Z,22.83
2023-02-08T21:46:32.808Z,20.08
2023-02-08T21:49:18.784Z,19.90
2023-02-08T21:52:04.359Z,20.65
2023-02-08T21:54:45.744Z,20.17
2023-02-08T21:57:18.609Z,21.02
2023-02-08T21:59:47.734Z,20.83
2023-02-08T22:02:21.613Z,20.15
2023-02-08T22:04:49.957Z,20.17
2023-02-08T22:07:17.546Z,20.05
2023-02-08T22:09:48.766Z,20.17
2023-02-08T22:12:20.559Z,19.88
2023-02-08T22:14:48.579Z,19.77
2023-02-08T22:17:16.789Z,20.40
2023-02-08T22:19:44.532Z,22.02
2023-02-08T22:22:12.715Z,20.15
2023-02-08T22:24:40.321Z,22.15
2023-02-08T22:27:09.848Z,21.42
2023-02-08T22:29:37.502Z,21.17
2023-02-08T22:32:05.608Z,21.40
2023-02-08T22:34:33.334Z,20.80
2023-02-08T22:37:03.661Z,20.55
2023-02-08T22:39:32.872Z,21.42
2023-02-08T22:42:00.811Z,20.75
2023-02-08T22:44:29.799Z,21.50
2023-02-08T22:46:58.084Z,21.67
2023-02-08T22:49:25.756Z,21.40
2023-02-08T22:51:53.345Z,21.88
2023-02-08T22:54:20.951Z,20.85
2023-02-08T22:56:48.456Z,21.27
2023-02-08T22:59:16.074Z,20.85
2023-02-08T23:01:45.077Z,22.20
2023-02-08T23:04:12.697Z,23.65
2023-02-08T23:06:40.450Z,22.10
2023-02-08T23:09:08.451Z,22.02
2023-02-08T23:11:36.133Z,23.15
2023-02-08T23:14:03.691Z,21.35
2023-02-08T23:16:31.419Z,21.73
2023-02-08T23:19:00.305Z,23.85
2023-02-08T23:21:28.718Z,22.55
2023-02-08T23:23:56.459Z,22.33
2023-02-08T23:26:24.194Z,24.15
2023-02-08T23:28:52.892Z,23.35
2023-02-08T23:31:21.310Z,22.83
2023-02-08T23:33:49.585Z,23.42
2023-02-08T23:36:21.225Z,24.77
2023-02-08T23:38:49.060Z,22.15
2023-02-08T23:41:19.035Z,23.23
2023-02-08T23:43:47.242Z,23.80
2023-02-08T23:46:17.503Z,22.42
2023-02-08T23:48:47.518Z,23.05
2023-02-08T23:51:16.012Z,22.83
2023-02-08T23:53:45.429Z,24.38
2023-02-08T23:56:15.933Z,22.33
2023-02-08T23:58:43.990Z,23.27
